• pl
  • eng

Awiacja
WIADOMOŚCI
ostatnia aktualizacja: 06.03.2019 14:41
Szanowni Państwo,

uprzejmie informujemy, że z dniem 01.01.2019 roku z obszaru MOLC zostało wyłączone BPM we Wrocławiu. Jego zadania zostały przejęte przez BPM w Krakowie.

Kliknij na pogrubioną czerwoną nazwę, aby odkodować depeszę. 12:31 24.03.2019
  • WIND
  • SIGNIFICANT EURO
  • SIGNIFICANT
  • SIGMET
  • AIRMET
  • TAF FC
  • TAF FT
  • METAR GG30
  • METAR GG00


METAR EPBY 241130Z 28010KT CAVOK 09/M02 Q1023 =

METAR EPGD 241130Z 29010KT 9999 FEW023 07/M01 Q1022 =

METAR EPKK 241130Z VRB03KT 9999 FEW028 11/02 Q1023 =

METAR EPKT 241130Z 27006KT 230V310 CAVOK 11/M01 Q1023 =

METAR EPLB 241130Z 31009KT CAVOK 11/M03 Q1021 =

METAR EPLL 241130Z 27007KT 210V330 CAVOK 10/M04 Q1023 =

METAR EPMO 241130Z 28010KT 250V340 CAVOK 10/M01 Q1022 =

METAR EPPO 241130Z 33006KT CAVOK 11/M01 Q1024 =

METAR EPRA 241130Z 32007KT 220V010 CAVOK 10/M04 Q1022=

METAR EPRZ 241130Z 30008KT 260V010 9999 SCT040 13/M01 Q1022 =

METAR EPSC 241130Z 27005KT 230V330 9999 FEW020 07/01 Q1025 =

METAR EPSY 241130Z 31006KT 240V050 CAVOK 08/M01 Q1022=

METAR EPWA 241130Z 27008KT 230V310 CAVOK 10/M01 Q1022 NOSIG=

METAR EPWR 241130Z VRB05KT 9999 SCT039 11/01 Q1024 =

METAR EPZG 241130Z VRB03KT 9999 FEW045 11/M00 Q1025 =
 METAR EPSC
Lokalizacja:EPSC Szczecin Goleniów
Czas:11:30 UTC
Średni kierunek wiatru:270 °
Średnia prędkość wiatru:5 węzłów
Kierunek wiatru zmienia się od:230 °
Kierunek wiatru zmienia się do:330 °
Widzialność:10 km i więcej
Pierwsza warstwa chmur:1/8 do 2/8, wysokość podstawy 2000 FT
Temperatura powietrza:7 °C
Temperatura punktu rosy:1 °C
Ciśnienie QNH:1025 hPa
Awiacja.imgw.pl jest pogodowym serwisem informacyjnym
Instytutu Meteorologii i Gospodarki Wodnej Państwowego Instytutu Badawczego.
Copyright IMGW PIB 2009-2011© Wszelkie prawa zastrzeżone.